sensor_id;sensor_type;location;lat;lon;timestamp;P1;durP1;ratioP1;P2;durP2;ratioP2
50649;SDS011;36621;60.058;30.346;2023-03-15T00:06:36;8.30;;;7.28;;
50649;SDS011;36621;60.058;30.346;2023-03-15T00:14:09;10.00;;;7.53;;
50649;SDS011;36621;60.058;30.346;2023-03-15T00:21:40;9.45;;;7.55;;
50649;SDS011;36621;60.058;30.346;2023-03-15T00:29:15;12.95;;;8.85;;
50649;SDS011;36621;60.058;30.346;2023-03-15T00:36:46;13.52;;;9.60;;
50649;SDS011;36621;60.058;30.346;2023-03-15T00:44:19;14.25;;;9.82;;
50649;SDS011;36621;60.058;30.346;2023-03-15T00:51:53;14.02;;;9.55;;
50649;SDS011;36621;60.058;30.346;2023-03-15T00:59:26;13.30;;;9.32;;
50649;SDS011;36621;60.058;30.346;2023-03-15T01:07:04;15.60;;;10.18;;
50649;SDS011;36621;60.058;30.346;2023-03-15T01:14:37;14.98;;;10.38;;
50649;SDS011;36621;60.058;30.346;2023-03-15T01:22:10;14.55;;;10.55;;
50649;SDS011;36621;60.058;30.346;2023-03-15T01:29:43;16.30;;;11.05;;
50649;SDS011;36621;60.058;30.346;2023-03-15T01:37:17;14.77;;;10.30;;
50649;SDS011;36621;60.058;30.346;2023-03-15T01:44:51;18.40;;;11.63;;
50649;SDS011;36621;60.058;30.346;2023-03-15T01:52:25;16.05;;;11.60;;
50649;SDS011;36621;60.058;30.346;2023-03-15T02:00:06;19.15;;;11.40;;
50649;SDS011;36621;60.058;30.346;2023-03-15T02:07:43;22.27;;;11.65;;
50649;SDS011;36621;60.058;30.346;2023-03-15T02:15:23;20.33;;;12.55;;
50649;SDS011;36621;60.058;30.346;2023-03-15T02:22:56;18.73;;;12.27;;
50649;SDS011;36621;60.058;30.346;2023-03-15T02:30:51;17.80;;;12.38;;
50649;SDS011;36621;60.058;30.346;2023-03-15T02:38:23;18.92;;;11.77;;
50649;SDS011;36621;60.058;30.346;2023-03-15T02:45:58;20.52;;;12.73;;
50649;SDS011;36621;60.058;30.346;2023-03-15T02:53:30;17.85;;;12.35;;
50649;SDS011;36621;60.058;30.346;2023-03-15T03:01:04;20.80;;;12.20;;
50649;SDS011;36621;60.058;30.346;2023-03-15T03:08:37;19.65;;;13.18;;
50649;SDS011;36621;60.058;30.346;2023-03-15T03:16:11;17.80;;;11.95;;
50649;SDS011;36621;60.058;30.346;2023-03-15T03:23:44;18.05;;;12.63;;
50649;SDS011;36621;60.058;30.346;2023-03-15T03:31:17;20.75;;;12.02;;
50649;SDS011;36621;60.058;30.346;2023-03-15T03:38:51;20.23;;;12.30;;
50649;SDS011;36621;60.058;30.346;2023-03-15T03:46:38;21.65;;;12.57;;
50649;SDS011;36621;60.058;30.346;2023-03-15T03:54:27;23.60;;;12.98;;
50649;SDS011;36621;60.058;30.346;2023-03-15T04:02:03;19.58;;;12.82;;
50649;SDS011;36621;60.058;30.346;2023-03-15T04:09:35;18.52;;;12.82;;
50649;SDS011;36621;60.058;30.346;2023-03-15T04:17:09;21.17;;;13.55;;
50649;SDS011;36621;60.058;30.346;2023-03-15T04:24:41;20.48;;;13.70;;
50649;SDS011;36621;60.058;30.346;2023-03-15T04:32:34;17.80;;;12.77;;
50649;SDS011;36621;60.058;30.346;2023-03-15T04:40:17;20.48;;;13.15;;
50649;SDS011;36621;60.058;30.346;2023-03-15T04:48:06;18.33;;;12.43;;
50649;SDS011;36621;60.058;30.346;2023-03-15T04:55:44;19.60;;;12.55;;
50649;SDS011;36621;60.058;30.346;2023-03-15T05:03:43;21.02;;;14.52;;
50649;SDS011;36621;60.058;30.346;2023-03-15T05:11:35;16.15;;;11.48;;
50649;SDS011;36621;60.058;30.346;2023-03-15T05:19:39;17.58;;;11.65;;
50649;SDS011;36621;60.058;30.346;2023-03-15T05:27:34;20.65;;;13.68;;
50649;SDS011;36621;60.058;30.346;2023-03-15T05:35:22;17.98;;;12.10;;
50649;SDS011;36621;60.058;30.346;2023-03-15T05:43:18;18.05;;;12.45;;
50649;SDS011;36621;60.058;30.346;2023-03-15T05:50:58;19.10;;;12.68;;
50649;SDS011;36621;60.058;30.346;2023-03-15T16:03:09;3.15;;;1.92;;
50649;SDS011;36621;60.058;30.346;2023-03-15T16:10:44;4.30;;;2.05;;
50649;SDS011;36621;60.058;30.346;2023-03-15T16:18:17;3.95;;;1.90;;
50649;SDS011;36621;60.058;30.346;2023-03-15T16:26:11;3.42;;;1.85;;
50649;SDS011;36621;60.058;30.346;2023-03-15T16:33:53;6.03;;;3.08;;
50649;SDS011;36621;60.058;30.346;2023-03-15T16:41:29;4.63;;;2.47;;
50649;SDS011;36621;60.058;30.346;2023-03-15T16:49:05;6.78;;;2.90;;
50649;SDS011;36621;60.058;30.346;2023-03-15T16:56:41;4.60;;;3.00;;
50649;SDS011;36621;60.058;30.346;2023-03-15T17:04:46;6.22;;;3.30;;
50649;SDS011;36621;60.058;30.346;2023-03-15T17:12:22;8.88;;;4.63;;
50649;SDS011;36621;60.058;30.346;2023-03-15T17:20:38;9.98;;;3.80;;
50649;SDS011;36621;60.058;30.346;2023-03-15T17:28:30;8.77;;;3.90;;
50649;SDS011;36621;60.058;30.346;2023-03-15T17:45:38;7.90;;;4.07;;
50649;SDS011;36621;60.058;30.346;2023-03-15T18:01:04;9.35;;;4.85;;
50649;SDS011;36621;60.058;30.346;2023-03-15T18:08:51;7.07;;;3.95;;
50649;SDS011;36621;60.058;30.346;2023-03-15T18:16:34;6.13;;;3.70;;
50649;SDS011;36621;60.058;30.346;2023-03-15T18:24:13;7.45;;;4.28;;
50649;SDS011;36621;60.058;30.346;2023-03-15T18:31:50;5.68;;;3.63;;
50649;SDS011;36621;60.058;30.346;2023-03-15T18:48:11;7.22;;;2.70;;
50649;SDS011;36621;60.058;30.346;2023-03-15T18:55:43;5.05;;;2.53;;
50649;SDS011;36621;60.058;30.346;2023-03-15T19:03:20;4.03;;;2.17;;
50649;SDS011;36621;60.058;30.346;2023-03-15T19:10:56;3.08;;;2.00;;
50649;SDS011;36621;60.058;30.346;2023-03-15T19:18:37;3.65;;;2.30;;
50649;SDS011;36621;60.058;30.346;2023-03-15T19:26:48;4.85;;;2.20;;
50649;SDS011;36621;60.058;30.346;2023-03-15T19:35:10;4.28;;;1.90;;
50649;SDS011;36621;60.058;30.346;2023-03-15T20:09:29;2.80;;;1.48;;
50649;SDS011;36621;60.058;30.346;2023-03-15T20:17:09;4.32;;;1.67;;
50649;SDS011;36621;60.058;30.346;2023-03-15T20:25:20;2.38;;;1.48;;
50649;SDS011;36621;60.058;30.346;2023-03-15T20:32:58;2.15;;;1.20;;
50649;SDS011;36621;60.058;30.346;2023-03-15T20:40:44;2.58;;;0.95;;
50649;SDS011;36621;60.058;30.346;2023-03-15T20:48:23;3.53;;;1.30;;
50649;SDS011;36621;60.058;30.346;2023-03-15T20:56:09;3.47;;;1.20;;
50649;SDS011;36621;60.058;30.346;2023-03-15T21:11:15;2.92;;;1.40;;
50649;SDS011;36621;60.058;30.346;2023-03-15T21:18:47;3.55;;;1.23;;
50649;SDS011;36621;60.058;30.346;2023-03-15T21:26:31;2.88;;;1.30;;
50649;SDS011;36621;60.058;30.346;2023-03-15T21:34:03;1.75;;;1.00;;
50649;SDS011;36621;60.058;30.346;2023-03-15T21:41:41;7.55;;;1.23;;
50649;SDS011;36621;60.058;30.346;2023-03-15T21:49:16;2.33;;;1.00;;
50649;SDS011;36621;60.058;30.346;2023-03-15T21:56:49;2.25;;;1.00;;
50649;SDS011;36621;60.058;30.346;2023-03-15T22:04:23;2.53;;;1.20;;
50649;SDS011;36621;60.058;30.346;2023-03-15T22:11:58;1.70;;;1.05;;
50649;SDS011;36621;60.058;30.346;2023-03-15T22:19:37;2.55;;;1.10;;
50649;SDS011;36621;60.058;30.346;2023-03-15T22:27:14;2.08;;;1.08;;
50649;SDS011;36621;60.058;30.346;2023-03-15T22:34:48;2.78;;;1.50;;
50649;SDS011;36621;60.058;30.346;2023-03-15T22:42:21;4.30;;;1.27;;
50649;SDS011;36621;60.058;30.346;2023-03-15T22:49:53;3.40;;;1.27;;
50649;SDS011;36621;60.058;30.346;2023-03-15T22:57:25;3.08;;;1.17;;
50649;SDS011;36621;60.058;30.346;2023-03-15T23:04:57;2.60;;;1.30;;
50649;SDS011;36621;60.058;30.346;2023-03-15T23:12:32;2.25;;;1.20;;
50649;SDS011;36621;60.058;30.346;2023-03-15T23:20:07;5.18;;;1.25;;
50649;SDS011;36621;60.058;30.346;2023-03-15T23:27:40;3.55;;;1.25;;
50649;SDS011;36621;60.058;30.346;2023-03-15T23:35:12;3.58;;;1.48;;
50649;SDS011;36621;60.058;30.346;2023-03-15T23:42:47;3.65;;;1.27;;
50649;SDS011;36621;60.058;30.346;2023-03-15T23:50:22;4.47;;;1.30;;
50649;SDS011;36621;60.058;30.346;2023-03-15T23:57:56;4.38;;;1.60;;
